Aérodrome :
LOGIN :

S'inscrire | Disclaimer

   EN    FR    IT 

 










Légende :    VFR   VFR Marginal   IFR   IFR Intensif   IFR Très Intensif
Visi : 
Plafond : 
>= 8 km
>= 3000ft
5 à 8 km
1000 à 3000 ft
1500m à 5 km
500 à 1000 ft
800 à 1500m
200 à 500 ft
< 800m
< 200 ft
Symboles :   Orages  Brouillard  Fortes neiges  Fortes précipitations  Vent > 20 kt
SIGMETs :   Divers  Orages  Givrage  Turbulence  Onde Orograph.  Cendres Volcan.







- Altitude de l'aérodrome : 464 ft
- Code IATA : EVX
- Voir les cartes d'approche


LFOE - Evreux

DERNIER METAR :
  • 181900Z AUTO 16014KT CAVOK 07/03 Q1008 TEMPO 21015G30KT 3000 RA BKN008

METARs EXPIRÉS :
  • 181830Z AUTO 16013KT CAVOK 07/03 Q1009 TEMPO 21015G30KT 3000 RA BKN008
  • 181800Z AUTO 15011KT CAVOK 07/03 Q1009 TEMPO 4000 -SHRA BECMG 16015G25KT
  • 181730Z AUTO 14012KT CAVOK 07/03 Q1009 TEMPO 4000 -SHRA BECMG 16015G25KT
  • 181700Z AUTO 15013KT CAVOK 07/03 Q1009 TEMPO 4000 -SHRA BECMG 16015G25KT
  • 181630Z AUTO 15012KT CAVOK 07/03 Q1010 TEMPO 4000 -SHRA BECMG 16015G25KT

TAF TAF LFOE
Valide du 18 à 15h jusqu'au 19 à 15h UTC


181400Z 1815/1915 16010G20KT CAVOK
BECMG 1818/1820 16015G25KT 5000 -RA OVC020
TEMPO 1818/1820 4000 -SHRA SCT030 BKN050
TEMPO 1820/1901 21015G30KT 3000 RA BKN008
BECMG 1901/1903 19010G20KT 9999 NSW BKN010
TEMPO 1904/1908 VRB15G30KT 3000 SHRA BKN005 BKN010CB
BECMG 1910/1912 SCT015
PROB30
TEMPO 1914/1915 VRB15G25KT 3000 SHRA SCT007 BKN015CB
Pas de NOTAMs connus pour ce terrain.



MET'MAP, la Météo Aéronautique d'un coup d'oeil ! - Copyright ORBIFLY Décembre 2007 - Disclaimer

ORBIFLY MET'MAP TEAM :

Programmation & Développement : Alexandra Zaïnal
Conception & Développement : Baudouin d'Aumeries
Co-Programmation & Développement : Marc-Olivier Méhu
Soutien technique & logistique : Manuel Goepfert

Contact : metmap@orbifly.com




SOURCES & CREDITS :

   NOAA